Terminal Aerodrome Forecast
Issued by NWS Melbourne, FL

Home | Current Version | Previous Version | Text Only | Print | Product List | Glossary On
Versions: 1 2 3 4 5 6 7 8 9 10 11 12 13 14
000
FTUS42 KMLB 300529
TAFVRB
TAF
KVRB 300529Z 3006/0106 24004KT P6SM SCT035 SCT080
     FM301400 27008KT P6SM SCT025 SCT150 BKN250
     FM301700 30007KT P6SM VCSH SCT025 BKN120
     FM010300 18005KT P6SM FEW020 BKN250=

USA.gov is the U.S. government's official web portal to all federal, state and local government web resources and services.